Time;durP1;ratioP1;P1;durP2;ratioP2;P2;SDS_P1;SDS_P2;PMS_P1;PMS_P2;Temp;Humidity;BMP_temperature;BMP_pressure;BME280_temperature;BME280_humidity;BME280_pressure;Samples;Min_cycle;Max_cycle;Signal;HPM_P1;HPM_P2
2022/06/09 00:01:10;;;;;;;;;;;;;;;13.31;82.96;100748.44;5044789;28;19920;-75
2022/06/09 00:03:40;;;;;;;;;;;;;;;13.32;83.01;100744.91;5043785;28;19913;-75
2022/06/09 00:06:06;;;;;;;;;;;;;;;13.32;82.95;100742.31;5043507;28;19988;-75
2022/06/09 00:08:32;;;;;;;;;;;;;;;13.32;82.90;100746.69;5047475;28;20011;-75
2022/06/09 00:11:03;;;;;;;;;;;;;;;13.32;82.88;100746.69;5051168;28;19921;-75
2022/06/09 00:13:28;;;;;;;;;;;;;;;13.31;82.93;100751.06;5047930;28;19919;-75
2022/06/09 00:15:54;;;;;;;;;;;;;;;13.29;83.07;100755.50;5049540;28;19917;-76
2022/06/09 00:18:20;;;;;;;;;;;;;;;13.30;83.05;100761.59;5048336;28;20363;-75
2022/06/09 00:20:45;;;;;;;;;;;;;;;13.29;82.98;100775.56;5052406;28;19924;-76
2022/06/09 00:23:13;;;;;;;;;;;;;;;13.27;83.09;100754.69;5046699;28;19918;-76
2022/06/09 00:25:38;;;;;;;;;;;;;;;13.27;83.22;100761.69;5051947;28;20367;-77
2022/06/09 00:28:03;;;;;;;;;;;;;;;13.25;83.26;100755.66;5048807;28;19913;-76
2022/06/09 00:30:28;;;;;;;;;;;;;;;13.21;83.30;100761.00;5049409;28;20288;-76
2022/06/09 00:32:54;;;;;;;;;;;;;;;13.19;83.28;100759.38;5048601;28;19916;-76
2022/06/09 00:35:19;;;;;;;;;;;;;;;13.17;83.35;100759.41;5047897;28;20398;-76
2022/06/09 00:37:44;;;;;;;;;;;;;;;13.16;83.58;100754.25;5048043;28;20437;-76
2022/06/09 00:40:11;;;;;;;;;;;;;;;13.16;83.62;100747.25;5050616;28;19921;-76
2022/06/09 00:42:36;;;;;;;;;;;;;;;13.16;83.66;100755.09;5045619;28;19974;-76
2022/06/09 00:45:20;;;;;;;;;;;;;;;13.15;83.57;100753.41;5048673;28;19924;-76
2022/06/09 00:47:45;;;;;;;;;;;;;;;13.13;83.60;100757.84;5048771;28;19913;-76
2022/06/09 00:50:13;;;;;;;;;;;;;;;13.13;83.79;100759.59;5049864;28;19932;-76
2022/06/09 00:52:42;;;;;;;;;;;;;;;13.11;83.61;100758.81;5047754;28;20302;-76
2022/06/09 00:55:12;;;;;;;;;;;;;;;13.09;83.74;100753.66;5047558;28;19999;-76
2022/06/09 00:57:41;;;;;;;;;;;;;;;13.08;83.70;100757.16;5050800;28;19982;-75
2022/06/09 01:00:12;;;;;;;;;;;;;;;13.07;83.69;100758.06;5048011;28;19924;-76
2022/06/09 01:02:38;;;;;;;;;;;;;;;13.06;83.72;100759.81;5044129;28;19920;-76
2022/06/09 01:05:05;;;;;;;;;;;;;;;13.05;83.82;100762.50;5046980;28;20015;-76
2022/06/09 01:07:36;;;;;;;;;;;;;;;13.03;83.78;100762.56;5048322;28;20011;-76
2022/06/09 01:10:03;;;;;;;;;;;;;;;13.01;83.82;100760.91;5050714;28;19917;-76
2022/06/09 01:12:31;;;;;;;;;;;;;;;13.01;83.92;100760.91;5045580;28;19959;-76
2022/06/09 01:15:01;;;;;;;;;;;;;;;12.99;83.82;100757.50;5043928;28;20363;-76
2022/06/09 01:17:42;;;;;;;;;;;;;;;12.98;83.67;100764.50;5045228;28;19916;-75
2022/06/09 01:20:07;;;;;;;;;;;;;;;12.96;83.73;100757.63;5044975;28;19919;-75
2022/06/09 01:22:32;;;;;;;;;;;;;;;12.96;83.97;100757.63;5045547;28;20367;-75
2022/06/09 01:25:01;;;;;;;;;;;;;;;12.95;83.84;100766.38;5025861;28;20019;-75
2022/06/09 01:27:35;;;;;;;;;;;;;;;12.94;83.71;100767.28;5048557;28;19913;-76
2022/06/09 01:30:06;;;;;;;;;;;;;;;12.93;83.89;100773.41;5047683;28;20356;-76
2022/06/09 01:32:37;;;;;;;;;;;;;;;12.92;83.89;100780.38;5046173;28;20016;-76
2022/06/09 01:35:21;;;;;;;;;;;;;;;12.89;83.95;100770.06;5047505;28;19912;-76
2022/06/09 01:37:48;;;;;;;;;;;;;;;12.87;83.73;100774.50;5042960;28;19964;-76
2022/06/09 01:40:16;;;;;;;;;;;;;;;12.84;83.97;100775.44;5041886;28;20003;-76
2022/06/09 01:42:43;;;;;;;;;;;;;;;12.84;83.81;100775.44;5044275;28;19925;-76
2022/06/09 01:45:21;;;;;;;;;;;;;;;12.84;83.81;100785.03;5047859;28;20562;-76
2022/06/09 01:48:00;;;;;;;;;;;;;;;12.82;83.91;100779.84;5048167;28;21169;-76
2022/06/09 01:50:28;;;;;;;;;;;;;;;12.82;84.05;100784.25;5046088;28;19920;-75
2022/06/09 01:52:55;;;;;;;;;;;;;;;12.81;83.99;100791.19;5047173;28;19912;-75
2022/06/09 01:55:22;;;;;;;;;;;;;;;12.80;84.05;100789.53;5043245;28;19920;-75
2022/06/09 01:57:50;;;;;;;;;;;;;;;12.80;84.02;100792.13;5043011;28;19931;-76
2022/06/09 02:00:17;;;;;;;;;;;;;;;12.80;84.06;100794.75;5045311;28;19913;-75
2022/06/09 02:02:46;;;;;;;;;;;;;;;12.80;83.97;100791.28;5044008;28;19975;-75
2022/06/09 02:05:13;;;;;;;;;;;;;;;12.79;84.07;100793.03;5046197;28;20326;-76
2022/06/09 02:07:39;;;;;;;;;;;;;;;12.79;83.97;100797.41;5043994;28;19913;-76
2022/06/09 02:10:15;;;;;;;;;;;;;;;12.77;83.96;100805.28;5045703;28;20003;-75
2022/06/09 02:12:41;;;;;;;;;;;;;;;12.77;84.11;100802.69;5045050;28;19959;-75
2022/06/09 02:15:08;;;;;;;;;;;;;;;12.76;84.17;100808.81;5044978;28;19959;-76
2022/06/09 02:17:43;;;;;;;;;;;;;;;12.74;84.15;100805.41;5043122;28;19978;-75
2022/06/09 02:20:09;;;;;;;;;;;;;;;12.75;84.16;100809.72;5046460;28;19913;-76
2022/06/09 02:22:34;;;;;;;;;;;;;;;12.73;84.14;100814.13;5049213;28;19921;-75
2022/06/09 02:24:59;;;;;;;;;;;;;;;12.73;84.23;100819.34;5043647;28;20003;-75
2022/06/09 02:27:25;;;;;;;;;;;;;;;12.73;84.27;100816.75;5044167;28;19913;-75
2022/06/09 02:29:50;;;;;;;;;;;;;;;12.72;84.26;100820.25;5040288;28;19971;-75
2022/06/09 02:32:17;;;;;;;;;;;;;;;12.73;84.25;100816.75;5044348;28;19917;-75
2022/06/09 02:34:42;;;;;;;;;;;;;;;12.72;84.27;100830.69;5044047;28;20287;-75
2022/06/09 02:37:07;;;;;;;;;;;;;;;12.72;84.25;100839.38;5042558;28;19932;-75
2022/06/09 02:39:32;;;;;;;;;;;;;;;12.73;84.33;100835.00;5045676;28;19942;-76
2022/06/09 02:41:57;;;;;;;;;;;;;;;12.74;84.36;100841.94;5042963;28;21581;-75
2022/06/09 02:44:22;;;;;;;;;;;;;;;12.72;84.30;100838.53;5049104;28;19919;-75
2022/06/09 02:46:48;;;;;;;;;;;;;;;12.72;84.32;100846.34;5044107;28;19928;-75
2022/06/09 02:49:13;;;;;;;;;;;;;;;12.72;84.22;100848.97;5040876;28;19920;-75
2022/06/09 02:51:40;;;;;;;;;;;;;;;12.72;84.28;100848.97;5045389;28;19923;-75
2022/06/09 02:54:06;;;;;;;;;;;;;;;12.72;84.35;100859.41;5045893;28;20360;-75
2022/06/09 02:56:32;;;;;;;;;;;;;;;12.71;84.28;100849.88;5048005;28;20189;-75
2022/06/09 02:58:58;;;;;;;;;;;;;;;12.71;84.39;100853.34;5043764;28;20568;-76
2022/06/09 03:01:25;;;;;;;;;;;;;;;12.72;84.49;100854.19;5046911;28;19935;-75
2022/06/09 03:03:50;;;;;;;;;;;;;;;12.72;84.35;100862.03;5029524;28;20409;-75
2022/06/09 03:06:15;;;;;;;;;;;;;;;12.71;84.55;100857.72;5048699;28;19916;-75
2022/06/09 03:08:40;;;;;;;;;;;;;;;12.71;84.44;100858.56;5045282;28;20023;-75
2022/06/09 03:11:06;;;;;;;;;;;;;;;12.71;84.49;100862.94;5046950;28;20272;-75
2022/06/09 03:13:31;;;;;;;;;;;;;;;12.71;84.48;100865.53;5046172;28;20351;-76
2022/06/09 03:15:57;;;;;;;;;;;;;;;12.71;84.59;100875.97;5048079;28;19951;-75
2022/06/09 03:18:22;;;;;;;;;;;;;;;12.70;84.33;100872.53;5043290;28;19920;-75
2022/06/09 03:20:48;;;;;;;;;;;;;;;12.69;84.12;100870.81;5044199;28;19971;-75
2022/06/09 03:23:13;;;;;;;;;;;;;;;12.70;84.43;100887.31;5045912;28;19927;-75
2022/06/09 03:25:38;;;;;;;;;;;;;;;12.70;84.39;100888.19;5042383;28;19924;-75
2022/06/09 03:28:04;;;;;;;;;;;;;;;12.70;84.53;100888.19;5044622;28;20003;-75
2022/06/09 03:30:30;;;;;;;;;;;;;;;12.71;84.46;100899.47;5048352;28;20279;-75
2022/06/09 03:32:55;;;;;;;;;;;;;;;12.71;84.37;100894.25;5047928;28;19919;-75
2022/06/09 03:35:20;;;;;;;;;;;;;;;12.73;84.52;100902.88;5044310;28;19940;-75
2022/06/09 03:37:45;;;;;;;;;;;;;;;12.73;84.46;100902.88;5041531;28;20306;-75
2022/06/09 03:40:15;;;;;;;;;;;;;;;12.74;84.58;100910.66;5044494;28;19913;-75
2022/06/09 03:42:40;;;;;;;;;;;;;;;12.75;84.64;100914.13;5050192;28;20363;-75
2022/06/09 03:45:05;;;;;;;;;;;;;;;12.77;84.47;100920.16;5051327;28;19924;-75
2022/06/09 03:47:30;;;;;;;;;;;;;;;12.77;84.46;100925.38;5050016;28;20395;-75
2022/06/09 03:49:56;;;;;;;;;;;;;;;12.80;84.62;100924.41;5047214;28;19920;-75
2022/06/09 03:52:21;;;;;;;;;;;;;;;12.82;84.64;100933.06;5052186;28;19920;-75
2022/06/09 03:54:46;;;;;;;;;;;;;;;12.83;84.64;100930.38;5050897;28;20015;-75
2022/06/09 03:57:11;;;;;;;;;;;;;;;12.86;84.42;100929.44;5030347;28;19924;-75
2022/06/09 03:59:37;;;;;;;;;;;;;;;12.87;84.45;100925.94;5028846;28;19943;-75
2022/06/09 04:02:02;;;;;;;;;;;;;;;12.86;84.40;100932.06;5029384;28;19928;-75
2022/06/09 04:04:27;;;;;;;;;;;;;;;12.86;84.50;100942.50;5031573;28;20584;-75
2022/06/09 04:06:53;;;;;;;;;;;;;;;12.86;84.60;100945.09;5029924;28;19916;-75
2022/06/09 04:09:19;;;;;;;;;;;;;;;12.84;84.38;100947.75;5031489;28;19920;-76
2022/06/09 04:11:44;;;;;;;;;;;;;;;12.84;84.48;100954.75;5032944;28;19917;-75
2022/06/09 04:14:09;;;;;;;;;;;;;;;12.83;84.42;100953.88;5030889;28;19923;-75
2022/06/09 04:16:35;;;;;;;;;;;;;;;12.82;84.46;100954.78;5028042;28;20372;-75
2022/06/09 04:19:02;;;;;;;;;;;;;;;12.82;84.43;100954.78;5028311;28;19917;-74
2022/06/09 04:21:29;;;;;;;;;;;;;;;12.81;84.42;100958.28;5026628;28;19913;-75
2022/06/09 04:23:54;;;;;;;;;;;;;;;12.80;84.35;100956.59;5030387;28;20027;-75
2022/06/09 04:26:21;;;;;;;;;;;;;;;12.79;84.23;100965.34;5026718;28;20012;-75
2022/06/09 04:28:46;;;;;;;;;;;;;;;12.78;84.26;100968.84;5028880;28;19928;-75
2022/06/09 04:31:12;;;;;;;;;;;;;;;12.78;84.26;100968.84;5028459;28;19912;-75
2022/06/09 04:33:37;;;;;;;;;;;;;;;12.78;84.17;100974.06;5033165;28;19920;-75
2022/06/09 04:36:03;;;;;;;;;;;;;;;12.77;84.35;100968.88;5027257;28;19921;-75
2022/06/09 04:38:28;;;;;;;;;;;;;;;12.77;84.36;100972.38;5029712;28;20437;-75
2022/06/09 04:40:54;;;;;;;;;;;;;;;12.78;84.20;100973.22;5027046;28;19913;-75
2022/06/09 04:43:20;;;;;;;;;;;;;;;12.77;84.07;100979.34;5029430;28;19914;-75
2022/06/09 04:45:45;;;;;;;;;;;;;;;12.74;84.31;100980.31;5029632;28;19928;-75
2022/06/09 04:48:10;;;;;;;;;;;;;;;12.75;84.19;100984.63;5028646;28;20387;-75
2022/06/09 04:50:36;;;;;;;;;;;;;;;12.73;84.20;100984.66;5030591;28;19928;-75
2022/06/09 04:53:02;;;;;;;;;;;;;;;12.74;84.18;100988.97;5028427;28;19913;-75
2022/06/09 04:55:27;;;;;;;;;;;;;;;12.74;83.99;100981.13;5026964;28;19940;-75
2022/06/09 04:57:53;;;;;;;;;;;;;;;12.74;84.17;100985.53;5036474;28;19924;-75
2022/06/09 05:00:18;;;;;;;;;;;;;;;12.74;84.07;100991.59;5043845;28;20348;-75
2022/06/09 05:02:44;;;;;;;;;;;;;;;12.73;84.24;100999.47;5043239;28;19931;-75
2022/06/09 05:05:16;;;;;;;;;;;;;;;12.74;84.06;101009.00;5044370;28;19917;-75
2022/06/09 05:07:42;;;;;;;;;;;;;;;12.75;84.24;101008.13;5041644;28;19923;-75
2022/06/09 05:10:08;;;;;;;;;;;;;;;12.78;84.20;101021.06;5044187;28;19921;-75
2022/06/09 05:12:33;;;;;;;;;;;;;;;12.82;84.18;101014.81;5044492;28;19978;-75
2022/06/09 05:14:58;;;;;;;;;;;;;;;12.84;84.23;101025.25;5046557;28;19924;-75
2022/06/09 05:17:23;;;;;;;;;;;;;;;12.86;83.97;101037.31;5046613;28;19942;-75
2022/06/09 05:19:48;;;;;;;;;;;;;;;12.88;83.99;101038.13;5042139;28;21431;-75
2022/06/09 05:22:14;;;;;;;;;;;;;;;12.92;84.02;101043.28;5040784;28;19928;-75
2022/06/09 05:24:39;;;;;;;;;;;;;;;12.97;84.04;101036.16;5044823;28;19920;-75
2022/06/09 05:27:04;;;;;;;;;;;;;;;13.01;84.10;101037.72;5044006;28;19920;-75
2022/06/09 05:29:30;;;;;;;;;;;;;;;13.04;84.07;101042.84;5043363;28;20444;-74
2022/06/09 05:31:55;;;;;;;;;;;;;;;13.09;83.87;101050.53;5046773;28;20054;-74
2022/06/09 05:34:20;;;;;;;;;;;;;;;13.17;84.04;101057.22;5046367;28;20007;-75
2022/06/09 05:36:46;;;;;;;;;;;;;;;13.26;84.17;101063.06;5047159;28;19931;-75
2022/06/09 05:44:51;;;;;;;;;;;;;;;13.55;83.64;101064.72;5048145;28;19919;-75
2022/06/09 05:47:19;;;;;;;;;;;;;;;13.60;83.48;101061.94;5050424;28;20375;-75
2022/06/09 05:49:44;;;;;;;;;;;;;;;13.62;83.21;101070.56;5051865;28;19965;-75
2022/06/09 05:52:10;;;;;;;;;;;;;;;13.64;83.48;101076.63;5046488;28;19912;-75
2022/06/09 05:54:35;;;;;;;;;;;;;;;13.64;83.61;101069.59;5045150;28;19942;-75
2022/06/09 05:57:00;;;;;;;;;;;;;;;13.68;83.48;101085.19;5034383;28;19971;-75
2022/06/09 05:59:25;;;;;;;;;;;;;;;13.65;83.32;101080.94;5045465;28;19917;-74
2022/06/09 06:01:52;;;;;;;;;;;;;;;13.64;83.30;101094.91;5051048;28;19916;-75
2022/06/09 06:04:17;;;;;;;;;;;;;;;13.67;83.36;101100.00;5052586;28;19927;-75
2022/06/09 06:06:43;;;;;;;;;;;;;;;13.71;83.36;101103.41;5050476;28;19927;-75
2022/06/09 06:09:13;;;;;;;;;;;;;;;13.72;83.06;101105.09;5051821;28;19927;-75
2022/06/09 06:11:39;;;;;;;;;;;;;;;13.72;83.20;101103.31;5050595;28;19912;-75
2022/06/09 06:14:06;;;;;;;;;;;;;;;13.77;83.35;101106.66;5047105;28;20344;-75
2022/06/09 06:16:31;;;;;;;;;;;;;;;13.83;83.32;101116.03;5045604;28;19939;-75
2022/06/09 06:18:57;;;;;;;;;;;;;;;13.91;83.29;101118.38;5043530;28;20360;-75
2022/06/09 06:21:23;;;;;;;;;;;;;;;13.96;83.15;101121.69;5044302;28;20000;-75
2022/06/09 06:23:48;;;;;;;;;;;;;;;14.01;83.15;101124.13;5044329;28;20383;-75
2022/06/09 06:26:14;;;;;;;;;;;;;;;14.06;83.48;101128.28;5049156;28;19920;-75
2022/06/09 06:28:39;;;;;;;;;;;;;;;14.10;83.00;101135.13;5049815;28;20378;-75
2022/06/09 06:31:05;;;;;;;;;;;;;;;14.12;82.95;101132.44;5049249;28;19924;-75
2022/06/09 06:33:30;;;;;;;;;;;;;;;14.15;82.83;101128.88;5048174;28;19965;-74
2022/06/09 06:35:55;;;;;;;;;;;;;;;14.16;82.87;101136.66;5045835;28;20288;-75
2022/06/09 06:38:21;;;;;;;;;;;;;;;14.19;82.63;101143.53;5049011;28;19925;-75
2022/06/09 06:40:46;;;;;;;;;;;;;;;14.16;82.65;101144.50;5029350;28;19920;-75
2022/06/09 06:43:11;;;;;;;;;;;;;;;14.16;82.79;101149.75;5049716;28;20058;-75
2022/06/09 06:45:37;;;;;;;;;;;;;;;14.19;82.56;101159.25;5048302;28;20391;-75
2022/06/09 06:48:02;;;;;;;;;;;;;;;14.16;82.44;101164.59;5031925;28;19921;-75
2022/06/09 06:50:27;;;;;;;;;;;;;;;14.11;82.53;101168.22;5048099;28;20271;-75
2022/06/09 06:52:53;;;;;;;;;;;;;;;14.05;82.38;101173.66;5033207;28;19966;-75
2022/06/09 06:55:19;;;;;;;;;;;;;;;14.02;82.65;101176.38;5047776;28;19913;-75
2022/06/09 06:57:45;;;;;;;;;;;;;;;14.01;82.53;101182.53;5050368;28;19952;-75
2022/06/09 07:00:12;;;;;;;;;;;;;;;13.98;82.55;101187.03;5051559;28;19950;-74
2022/06/09 07:02:37;;;;;;;;;;;;;;;13.94;82.50;101196.75;5047207;28;19912;-75
2022/06/09 07:05:03;;;;;;;;;;;;;;;13.92;82.63;101193.31;5046485;28;19965;-75
2022/06/09 07:07:29;;;;;;;;;;;;;;;13.92;82.66;101198.56;5045045;28;19920;-75
2022/06/09 07:09:55;;;;;;;;;;;;;;;13.93;82.62;101197.66;5047204;28;19922;-75
2022/06/09 07:12:20;;;;;;;;;;;;;;;13.95;82.70;101199.28;5029653;28;19995;-75
2022/06/09 07:14:45;;;;;;;;;;;;;;;14.00;82.62;101201.78;5049371;28;20175;-75
2022/06/09 07:17:10;;;;;;;;;;;;;;;14.03;82.62;101206.88;5046729;28;19927;-75
2022/06/09 07:19:36;;;;;;;;;;;;;;;14.09;82.42;101219.75;5044914;28;19943;-75
2022/06/09 07:22:02;;;;;;;;;;;;;;;14.09;82.38;101217.13;5048160;28;20331;-75
2022/06/09 07:24:28;;;;;;;;;;;;;;;14.12;82.15;101226.63;5049821;28;19913;-75
2022/06/09 07:26:54;;;;;;;;;;;;;;;14.13;82.31;101227.50;5045522;28;19935;-75
2022/06/09 07:29:19;;;;;;;;;;;;;;;14.15;82.27;101223.91;5049991;28;20355;-75
2022/06/09 07:31:44;;;;;;;;;;;;;;;14.18;82.05;101231.66;5052103;28;20011;-75
2022/06/09 07:34:09;;;;;;;;;;;;;;;14.20;82.11;101231.59;5049148;28;19956;-75
2022/06/09 07:36:35;;;;;;;;;;;;;;;14.25;82.08;101233.19;5049290;28;20054;-75
2022/06/09 07:39:00;;;;;;;;;;;;;;;14.33;82.09;101230.28;5048310;28;20370;-75
2022/06/09 07:41:25;;;;;;;;;;;;;;;14.43;81.74;101236.06;5045843;28;19990;-75
2022/06/09 07:43:51;;;;;;;;;;;;;;;14.47;81.32;101235.00;5046800;28;19921;-75
2022/06/09 07:46:16;;;;;;;;;;;;;;;14.49;81.00;101235.81;5048431;28;19920;-75
2022/06/09 07:48:42;;;;;;;;;;;;;;;14.49;80.75;101235.81;5050762;28;20095;-75
2022/06/09 07:51:07;;;;;;;;;;;;;;;14.50;80.57;101244.53;5048952;28;19920;-75
2022/06/09 07:53:32;;;;;;;;;;;;;;;14.49;80.74;101235.81;5050878;28;19923;-75
2022/06/09 07:55:58;;;;;;;;;;;;;;;14.57;80.76;101238.16;5050701;28;19912;-75
2022/06/09 07:58:23;;;;;;;;;;;;;;;14.60;80.48;101245.91;5032100;28;19970;-75
2022/06/09 08:00:48;;;;;;;;;;;;;;;14.61;80.56;101239.75;5048987;28;19916;-75
2022/06/09 08:03:18;;;;;;;;;;;;;;;14.65;80.60;101236.13;5047027;28;20268;-75
2022/06/09 08:05:43;;;;;;;;;;;;;;;14.75;80.72;101246.28;5050535;28;19916;-75
2022/06/09 08:08:08;;;;;;;;;;;;;;;14.87;80.56;101246.69;5044915;28;19997;-75
2022/06/09 08:10:34;;;;;;;;;;;;;;;14.96;79.94;101250.72;5049883;28;19913;-75
2022/06/09 08:13:00;;;;;;;;;;;;;;;15.05;80.09;101259.13;5048301;28;19966;-75
2022/06/09 08:15:26;;;;;;;;;;;;;;;15.15;79.85;101255.28;5050070;28;20354;-76
2022/06/09 08:17:51;;;;;;;;;;;;;;;15.25;79.98;101256.63;5046551;28;20019;-76
2022/06/09 08:20:17;;;;;;;;;;;;;;;15.37;79.75;101264.94;5047899;28;19913;-75
2022/06/09 08:22:43;;;;;;;;;;;;;;;15.47;79.68;101261.03;5041784;28;19917;-76
2022/06/09 08:25:13;;;;;;;;;;;;;;;15.55;79.29;101272.03;5043911;28;19919;-75
2022/06/09 08:27:38;;;;;;;;;;;;;;;15.59;79.22;101265.78;5045849;28;19913;-76
2022/06/09 08:30:04;;;;;;;;;;;;;;;15.66;78.80;101276.88;5046688;28;19920;-76
2022/06/09 08:32:30;;;;;;;;;;;;;;;15.66;78.06;101281.28;5046520;28;19920;-75
2022/06/09 08:34:56;;;;;;;;;;;;;;;15.62;78.06;101281.38;5048273;28;19943;-75
2022/06/09 08:37:21;;;;;;;;;;;;;;;15.68;77.28;101290.78;5028748;28;19943;-75
2022/06/09 08:39:46;;;;;;;;;;;;;;;15.70;77.38;101295.97;5044819;28;20359;-75
2022/06/09 08:42:21;;;;;;;;;;;;;;;15.72;76.37;101299.38;5051487;28;19921;-76
2022/06/09 08:44:52;;;;;;;;;;;;;;;15.69;76.28;101302.13;5046372;28;19913;-75
2022/06/09 08:47:35;;;;;;;;;;;;;;;15.72;75.84;101305.47;5046675;28;19920;-76
2022/06/09 08:50:00;;;;;;;;;;;;;;;15.81;75.54;101309.50;5046662;28;19927;-75
2022/06/09 08:52:38;;;;;;;;;;;;;;;15.93;75.31;101319.53;5050709;28;19913;-75
2022/06/09 08:55:15;;;;;;;;;;;;;;;16.03;74.36;101317.38;5051461;28;20274;-75
2022/06/09 08:57:41;;;;;;;;;;;;;;;16.08;74.36;101320.69;5049698;28;20524;-75
2022/06/09 09:00:10;;;;;;;;;;;;;;;16.15;73.62;101338.78;5052751;28;19916;-75
2022/06/09 09:02:39;;;;;;;;;;;;;;;16.11;72.08;101335.44;5049464;28;20413;-76
2022/06/09 09:05:10;;;;;;;;;;;;;;;16.03;71.47;101330.50;5046462;28;20010;-75
2022/06/09 09:07:37;;;;;;;;;;;;;;;15.98;71.55;101336.88;5043019;28;19913;-75
2022/06/09 09:10:35;;;;;;;;;;;;;;;15.96;71.64;101346.56;5044063;28;20359;-76
2022/06/09 09:13:03;;;;;;;;;;;;;;;15.88;71.76;101349.50;5003900;28;19919;-75
2022/06/09 09:15:47;;;;;;;;;;;;;;;15.85;71.81;101366.22;5044063;28;20015;-76
2022/06/09 09:18:15;;;;;;;;;;;;;;;15.81;71.20;101359.34;5044507;28;19968;-75
2022/06/09 09:20:44;;;;;;;;;;;;;;;15.79;71.78;101363.81;5047171;28;19986;-76
2022/06/09 09:23:13;;;;;;;;;;;;;;;15.79;71.00;101366.44;5047852;28;19913;-75
2022/06/09 09:25:44;;;;;;;;;;;;;;;15.74;71.70;101371.88;5047497;28;20368;-76
2022/06/09 09:28:15;;;;;;;;;;;;;;;15.70;71.18;101370.25;5050890;28;19913;-75
2022/06/09 09:30:54;;;;;;;;;;;;;;;15.68;71.60;101376.50;5054085;28;20389;-75
2022/06/09 09:33:20;;;;;;;;;;;;;;;15.64;71.78;101373.13;5050179;28;19921;-75
2022/06/09 09:35:47;;;;;;;;;;;;;;;15.61;71.21;101379.34;5051810;28;19943;-76
2022/06/09 09:38:15;;;;;;;;;;;;;;;15.55;71.83;101381.34;5049452;28;20074;-76
2022/06/09 09:40:43;;;;;;;;;;;;;;;15.54;72.46;101382.25;5052746;28;20004;-76
2022/06/09 09:43:13;;;;;;;;;;;;;;;15.57;71.90;101383.00;5049967;28;19913;-76
2022/06/09 09:45:42;;;;;;;;;;;;;;;15.56;72.36;101385.69;5053405;28;19919;-77
2022/06/09 09:48:27;;;;;;;;;;;;;;;15.62;72.25;101391.53;5051594;28;20379;-77
2022/06/09 09:50:58;;;;;;;;;;;;;;;15.66;72.56;101391.44;5049866;28;19951;-76
2022/06/09 09:53:27;;;;;;;;;;;;;;;15.74;72.09;101394.59;5049487;28;20376;-76
2022/06/09 09:55:52;;;;;;;;;;;;;;;15.78;71.69;101406.69;5050106;28;19916;-77
2022/06/09 09:58:20;;;;;;;;;;;;;;;15.78;71.11;101401.44;5051114;28;19923;-76
2022/06/09 10:00:47;;;;;;;;;;;;;;;15.81;71.62;101401.34;5053422;28;20068;-76
2022/06/09 10:08:46;;;;;;;;;;;;;;;16.02;71.39;101406.69;5043000;28;19921;-76
2022/06/09 10:13:59;;;;;;;;;;;;;;;16.15;70.78;101414.91;5043729;28;19920;-76
2022/06/09 10:16:26;;;;;;;;;;;;;;;16.18;70.71;101420.91;5046096;28;19920;-77
2022/06/09 10:18:53;;;;;;;;;;;;;;;16.19;70.40;101406.00;5044997;28;19952;-77
2022/06/09 10:21:19;;;;;;;;;;;;;;;16.21;70.62;101410.28;5043350;28;19921;-75
2022/06/09 10:23:44;;;;;;;;;;;;;;;16.23;70.33;101408.44;5045633;28;19913;-76
2022/06/09 10:26:12;;;;;;;;;;;;;;;16.23;70.25;101408.44;5043390;28;21300;-75
2022/06/09 10:28:43;;;;;;;;;;;;;;;16.26;70.31;101419.72;5041540;28;20426;-75
2022/06/09 10:31:08;;;;;;;;;;;;;;;16.26;70.62;101414.47;5042725;28;19913;-76
2022/06/09 10:33:40;;;;;;;;;;;;;;;16.30;70.08;101429.19;5044284;28;19970;-76
2022/06/09 10:36:10;;;;;;;;;;;;;;;16.26;70.10;101433.72;5044063;28;20375;-76
2022/06/09 10:38:39;;;;;;;;;;;;;;;16.23;70.19;101425.97;5041475;28;19917;-75
2022/06/09 10:41:09;;;;;;;;;;;;;;;16.23;70.00;101423.34;5044480;28;19928;-75
2022/06/09 10:43:45;;;;;;;;;;;;;;;16.24;70.01;101428.53;5042591;28;20379;-75
2022/06/09 10:46:27;;;;;;;;;;;;;;;16.27;70.57;101424.94;5043379;28;19912;-76
2022/06/09 10:57:31;;;;;;;;;;;;;;;16.74;70.30;101428.28;5045537;28;20327;-75
2022/06/09 11:00:11;;;;;;;;;;;;;;;16.84;69.97;101430.44;5045019;28;19921;-75
2022/06/09 11:02:38;;;;;;;;;;;;;;;16.93;70.05;101423.06;5028421;28;19912;-76
2022/06/09 11:05:03;;;;;;;;;;;;;;;17.05;70.14;101421.72;5044825;28;19958;-76
2022/06/09 11:07:28;;;;;;;;;;;;;;;17.20;69.16;101428.09;5044186;28;19928;-76
2022/06/09 11:10:07;;;;;;;;;;;;;;;17.29;69.76;101427.69;5044605;28;19931;-75
2022/06/09 11:12:39;;;;;;;;;;;;;;;17.38;69.50;101436.94;5044176;28;19940;-75
2022/06/09 11:15:10;;;;;;;;;;;;;;;17.42;69.18;101430.63;5039500;28;20283;-75
2022/06/09 11:17:38;;;;;;;;;;;;;;;17.50;68.92;101439.03;5044143;28;20283;-76
2022/06/09 11:20:04;;;;;;;;;;;;;;;17.56;68.37;101437.88;5041828;28;19917;-75
2022/06/09 11:22:37;;;;;;;;;;;;;;;17.63;66.97;101439.31;5045137;28;19931;-76
2022/06/09 11:25:05;;;;;;;;;;;;;;;17.63;66.95;101430.56;5042319;28;19962;-75
2022/06/09 11:27:30;;;;;;;;;;;;;;;17.59;66.81;101446.50;5043305;28;19970;-75
2022/06/09 11:30:02;;;;;;;;;;;;;;;17.57;67.15;101444.88;5042488;28;19916;-76
2022/06/09 11:32:38;;;;;;;;;;;;;;;17.54;66.60;101451.09;5042592;28;19913;-75
2022/06/09 11:35:12;;;;;;;;;;;;;;;17.44;66.36;101448.03;5046067;28;19959;-76
2022/06/09 11:37:37;;;;;;;;;;;;;;;17.31;66.35;101459.19;5047246;28;19917;-75
2022/06/09 11:40:05;;;;;;;;;;;;;;;17.20;65.46;101467.53;5044856;28;19920;-76
2022/06/09 11:42:46;;;;;;;;;;;;;;;17.12;66.78;101460.81;5041696;28;20206;-75
2022/06/09 11:45:20;;;;;;;;;;;;;;;17.08;66.82;101469.75;5041545;28;19912;-73
2022/06/09 11:47:45;;;;;;;;;;;;;;;17.08;67.04;101469.75;5041851;28;20252;-76
2022/06/09 11:50:15;;;;;;;;;;;;;;;17.08;67.09;101468.91;5042540;28;19934;-76
2022/06/09 11:52:49;;;;;;;;;;;;;;;17.08;66.82;101480.28;5044638;28;20352;-75
2022/06/09 11:55:57;;;;;;;;;;;;;;;17.10;67.19;101473.19;5022616;28;19940;-76
2022/06/09 11:58:33;;;;;;;;;;;;;;;17.18;67.27;101472.00;5043857;28;20367;-76
2022/06/09 12:01:17;;;;;;;;;;;;;;;17.22;67.02;101476.22;5045570;28;20367;-76
2022/06/09 12:03:42;;;;;;;;;;;;;;;17.26;66.35;101489.16;5050719;28;20100;-75
2022/06/09 12:06:16;;;;;;;;;;;;;;;17.28;65.64;101491.72;5052780;28;20367;-75
2022/06/09 12:08:52;;;;;;;;;;;;;;;17.31;64.28;101491.59;5046300;28;21102;-76
2022/06/09 12:11:19;;;;;;;;;;;;;;;17.33;65.52;101497.63;5051709;28;19920;-75
2022/06/09 12:13:44;;;;;;;;;;;;;;;17.42;63.82;101507.72;5049516;28;19955;-76
2022/06/09 12:16:21;;;;;;;;;;;;;;;17.45;63.78;101499.72;5053952;28;19956;-76
2022/06/09 12:18:57;;;;;;;;;;;;;;;17.45;62.88;101493.63;5047349;28;19917;-76
2022/06/09 12:21:29;;;;;;;;;;;;;;;17.43;62.35;101493.66;5048256;28;20030;-76
2022/06/09 12:23:54;;;;;;;;;;;;;;;17.44;61.86;101497.16;5046813;28;19920;-76
2022/06/09 12:26:25;;;;;;;;;;;;;;;17.40;62.63;101493.81;5048477;28;20369;-76
2022/06/09 12:28:50;;;;;;;;;;;;;;;17.43;62.77;101495.44;5046659;28;20418;-76
2022/06/09 12:31:20;;;;;;;;;;;;;;;17.50;62.47;101496.91;5050239;28;19916;-76
2022/06/09 12:34:00;;;;;;;;;;;;;;;17.56;62.18;101503.66;5032139;28;19955;-76
2022/06/09 12:36:28;;;;;;;;;;;;;;;17.64;62.06;101503.31;5048751;28;19927;-76
2022/06/09 12:38:56;;;;;;;;;;;;;;;17.67;62.27;101514.56;5050164;28;20348;-76
2022/06/09 12:41:27;;;;;;;;;;;;;;;17.69;61.43;101514.47;5052154;28;19913;-76
2022/06/09 12:44:19;;;;;;;;;;;;;;;17.67;62.15;101511.09;5047538;28;19921;-76
2022/06/09 12:46:50;;;;;;;;;;;;;;;17.67;62.25;101524.22;5026068;28;20050;-76
2022/06/09 12:49:22;;;;;;;;;;;;;;;17.64;61.64;101529.63;5047862;28;19926;-76
2022/06/09 12:51:47;;;;;;;;;;;;;;;17.60;62.06;101531.53;5049270;28;20290;-76
2022/06/09 12:54:25;;;;;;;;;;;;;;;17.57;62.32;101536.94;5045397;28;20364;-76
2022/06/09 12:56:57;;;;;;;;;;;;;;;17.52;62.22;101544.19;5049493;28;20955;-76
2022/06/09 12:59:28;;;;;;;;;;;;;;;17.48;62.65;101543.47;5045286;28;19995;-76
2022/06/09 13:01:55;;;;;;;;;;;;;;;17.45;62.47;101551.47;5045342;28;19999;-75